Wetterdaten: aktuell Freitag, 19.07.2019 12:42
Datum Zeit Temperatur Feuchte A. Luftdruck Regen Wind Richtung Richtung Taupunkt Windchill Windben
19.07.2019 12:42 21,8 C 55 % 1015,7 hPa 0,0 l/m 3,6 km/h (1 Bft) N 5 12,4 C 21,8 C 8,0 km/h (2 Bft)
19.07.2019 12:41 21,8 C 55 % 1015,7 hPa 0,0 l/m 3,7 km/h (1 Bft) N 5 12,4 C 21,8 C 8,0 km/h (2 Bft)
19.07.2019 12:40 21,8 C 56 % 1015,6 hPa 0,0 l/m 2,1 km/h (1 Bft) N 10 12,6 C 21,8 C 6,4 km/h (2 Bft)
19.07.2019 12:39 21,7 C 55 % 1015,7 hPa 0,0 l/m 1,5 km/h (1 Bft) SW 231 12,3 C 21,7 C 3,2 km/h (1 Bft)
19.07.2019 12:38 21,7 C 56 % 1015,6 hPa 0,0 l/m 0,9 km/h (0 Bft) SW 231 12,5 C 21,7 C 3,2 km/h (1 Bft)
19.07.2019 12:37 21,7 C 56 % 1015,6 hPa 0,0 l/m 1,5 km/h (1 Bft) SW 231 12,5 C 21,7 C 4,8 km/h (1 Bft)
19.07.2019 12:36 21,6 C 57 % 1015,7 hPa 0,0 l/m 0,2 km/h (0 Bft) SW 232 12,7 C 21,6 C 1,6 km/h (1 Bft)
19.07.2019 12:35 21,6 C 56 % 1015,6 hPa 0,0 l/m 1,2 km/h (1 Bft) SW 232 12,4 C 21,6 C 3,2 km/h (1 Bft)
19.07.2019 12:34 21,6 C 58 % 1015,6 hPa 0,0 l/m 2,1 km/h (1 Bft) SW 233 13,0 C 21,6 C 4,8 km/h (1 Bft)
19.07.2019 12:33 21,5 C 60 % 1015,7 hPa 0,0 l/m 0,3 km/h (0 Bft) N-NW 328 13,4 C 21,5 C 1,6 km/h (1 Bft)
19.07.2019 12:32 21,4 C 59 % 1015,7 hPa 0,0 l/m 0,6 km/h (0 Bft) N-NW 328 13,0 C 21,4 C 3,2 km/h (1 Bft)
19.07.2019 12:31 21,3 C 61 % 1015,7 hPa 0,0 l/m 2,5 km/h (1 Bft) N-NW 327 13,5 C 21,3 C 8,0 km/h (2 Bft)
19.07.2019 12:30 21,3 C 58 % 1015,6 hPa 0,0 l/m 4,3 km/h (1 Bft) N-NW 346 12,7 C 21,3 C 12,9 km/h (3 Bft)
19.07.2019 12:29 21,3 C 56 % 1015,7 hPa 0,0 l/m 2,1 km/h (1 Bft) W 259 12,2 C 21,3 C 4,8 km/h (1 Bft)
19.07.2019 12:28 21,3 C 56 % 1015,7 hPa 0,0 l/m 2,3 km/h (1 Bft) W-NW 295 12,2 C 21,3 C 4,8 km/h (1 Bft)
19.07.2019 12:27 21,3 C 55 % 1015,7 hPa 0,0 l/m 1,3 km/h (1 Bft) N 355 11,9 C 21,3 C 4,8 km/h (1 Bft)
19.07.2019 12:26 21,3 C 58 % 1015,8 hPa 0,0 l/m 2,3 km/h (1 Bft) NW 313 12,7 C 21,3 C 4,8 km/h (1 Bft)
19.07.2019 12:25 21,3 C 57 % 1015,7 hPa 0,0 l/m 0,6 km/h (0 Bft) NW 319 12,4 C 21,3 C 3,2 km/h (1 Bft)
19.07.2019 12:24 21,3 C 56 % 1015,7 hPa 0,0 l/m 1,6 km/h (1 Bft) NW 319 12,2 C 21,3 C 3,2 km/h (1 Bft)
19.07.2019 12:23 21,3 C 57 % 1015,7 hPa 0,0 l/m 2,0 km/h (1 Bft) NW 315 12,4 C 21,3 C 4,8 km/h (1 Bft)
19.07.2019 12:22 21,3 C 57 % 1015,7 hPa 0,0 l/m 2,5 km/h (1 Bft) N-NO 30 12,4 C 21,3 C 6,4 km/h (2 Bft)
19.07.2019 12:21 21,3 C 58 % 1015,7 hPa 0,0 l/m 3,2 km/h (1 Bft) NO 40 12,7 C 21,3 C 8,0 km/h (2 Bft)
19.07.2019 12:20 21,3 C 57 % 1015,8 hPa 0,0 l/m 2,7 km/h (1 Bft) S-SW 206 12,4 C 21,3 C 6,4 km/h (2 Bft)
19.07.2019 12:19 21,2 C 57 % 1015,6 hPa 0,0 l/m 1,9 km/h (1 Bft) S-SW 199 12,3 C 21,2 C 3,2 km/h (1 Bft)
19.07.2019 12:18 21,2 C 59 % 1015,8 hPa 0,0 l/m 6,0 km/h (2 Bft) S-SW 200 12,9 C 21,2 C 16,1 km/h (3 Bft)
19.07.2019 12:17 21,2 C 60 % 1015,6 hPa 0,0 l/m 4,0 km/h (1 Bft) N-NW 342 13,1 C 21,2 C 8,0 km/h (2 Bft)
19.07.2019 12:16 21,2 C 60 % 1015,7 hPa 0,0 l/m 0,0 km/h (0 Bft) W-NW 288 13,1 C 21,2 C 0,0 km/h (0 Bft)
19.07.2019 12:15 21,1 C 59 % 1015,7 hPa 0,0 l/m 0,0 km/h (0 Bft) W-NW 288 12,8 C 21,1 C 0,0 km/h (0 Bft)
19.07.2019 12:14 21,1 C 59 % 1015,7 hPa 0,0 l/m 0,1 km/h (0 Bft) W-NW 288 12,8 C 21,1 C 1,6 km/h (1 Bft)
19.07.2019 12:13 21,1 C 60 % 1015,6 hPa 0,0 l/m 2,3 km/h (1 Bft) W-NW 288 13,0 C 21,1 C 4,8 km/h (1 Bft)
19.07.2019 12:12 21,1 C 62 % 1015,6 hPa 0,0 l/m 3,1 km/h (1 Bft) N-NO 13 13,5 C 21,1 C 6,4 km/h (2 Bft)
19.07.2019 12:11 21,0 C 59 % 1015,6 hPa 0,0 l/m 0,9 km/h (0 Bft) S 175 12,7 C 21,0 C 3,2 km/h (1 Bft)
19.07.2019 12:10 21,0 C 59 % 1015,6 hPa 0,0 l/m 4,2 km/h (1 Bft) S 175 12,7 C 21,0 C 6,4 km/h (2 Bft)
19.07.2019 12:09 21,0 C 62 % 1015,6 hPa 0,0 l/m 2,5 km/h (1 Bft) W-SW 242 13,4 C 21,0 C 8,0 km/h (2 Bft)
19.07.2019 12:08 20,9 C 62 % 1015,5 hPa 0,0 l/m 2,3 km/h (1 Bft) W-SW 242 13,3 C 20,9 C 4,8 km/h (1 Bft)
19.07.2019 12:07 20,9 C 62 % 1015,6 hPa 0,0 l/m 1,0 km/h (0 Bft) W-SW 242 13,3 C 20,9 C 1,6 km/h (1 Bft)
19.07.2019 12:06 20,8 C 61 % 1015,6 hPa 0,0 l/m 0,2 km/h (0 Bft) W-SW 242 13,0 C 20,8 C 1,6 km/h (1 Bft)
19.07.2019 12:05 20,8 C 61 % 1015,6 hPa 0,0 l/m 0,1 km/h (0 Bft) W-SW 242 13,0 C 20,8 C 1,6 km/h (1 Bft)
19.07.2019 12:04 20,7 C 63 % 1015,6 hPa 0,0 l/m 2,1 km/h (1 Bft) W-SW 242 13,4 C 20,7 C 4,8 km/h (1 Bft)
19.07.2019 12:03 20,7 C 61 % 1015,6 hPa 0,0 l/m 2,0 km/h (1 Bft) S 171 12,9 C 20,7 C 8,0 km/h (2 Bft)
19.07.2019 12:02 20,7 C 61 % 1015,7 hPa 0,0 l/m 1,6 km/h (1 Bft) SO 145 12,9 C 20,7 C 4,8 km/h (1 Bft)
19.07.2019 12:00 20,7 C 62 % 1015,7 hPa 0,0 l/m 3,2 km/h (1 Bft) S-SO 147 13,2 C 20,7 C 9,7 km/h (2 Bft)
19.07.2019 11:59 20,6 C 61 % 1015,7 hPa 0,0 l/m 3,5 km/h (1 Bft) SO 138 12,8 C 20,6 C 6,4 km/h (2 Bft)
19.07.2019 11:58 20,6 C 59 % 1015,7 hPa 0,0 l/m 0,5 km/h (0 Bft) SW 220 12,3 C 20,6 C 3,2 km/h (1 Bft)
19.07.2019 11:57 20,6 C 60 % 1015,8 hPa 0,0 l/m 4,3 km/h (1 Bft) SW 229 12,6 C 20,6 C 12,9 km/h (3 Bft)
19.07.2019 11:56 20,6 C 59 % 1015,7 hPa 0,0 l/m 1,0 km/h (0 Bft) W-NW 286 12,3 C 20,6 C 3,2 km/h (1 Bft)
19.07.2019 11:55 20,6 C 60 % 1015,7 hPa 0,0 l/m 1,6 km/h (1 Bft) W-NW 286 12,6 C 20,6 C 3,2 km/h (1 Bft)
19.07.2019 11:54 20,6 C 61 % 1015,7 hPa 0,0 l/m 0,5 km/h (0 Bft) W-NW 298 12,8 C 20,6 C 4,8 km/h (1 Bft)
19.07.2019 11:53 20,6 C 61 % 1015,6 hPa 0,0 l/m 2,1 km/h (1 Bft) W-NW 298 12,8 C 20,6 C 6,4 km/h (2 Bft)
19.07.2019 11:52 20,6 C 60 % 1015,6 hPa 0,0 l/m 0,7 km/h (0 Bft) W-SW 248 12,6 C 20,6 C 1,6 km/h (1 Bft)
19.07.2019 11:51 20,6 C 60 % 1015,6 hPa 0,0 l/m 2,3 km/h (1 Bft) W-SW 248 12,6 C 20,6 C 4,8 km/h (1 Bft)
19.07.2019 11:50 20,6 C 61 % 1015,6 hPa 0,0 l/m 2,2 km/h (1 Bft) W 270 12,8 C 20,6 C 4,8 km/h (1 Bft)
19.07.2019 11:49 20,6 C 60 % 1015,7 hPa 0,0 l/m 1,3 km/h (1 Bft) W 271 12,6 C 20,6 C 4,8 km/h (1 Bft)
19.07.2019 11:48 20,7 C 60 % 1015,7 hPa 0,0 l/m 1,3 km/h (1 Bft) W 273 12,7 C 20,7 C 3,2 km/h (1 Bft)
19.07.2019 11:47 20,7 C 59 % 1015,7 hPa 0,0 l/m 3,0 km/h (1 Bft) W 272 12,4 C 20,7 C 6,4 km/h (2 Bft)
19.07.2019 11:46 20,8 C 59 % 1015,6 hPa 0,0 l/m 1,2 km/h (1 Bft) W 266 12,5 C 20,8 C 4,8 km/h (1 Bft)
19.07.2019 11:45 20,8 C 60 % 1015,7 hPa 0,0 l/m 1,3 km/h (1 Bft) W 273 12,7 C 20,8 C 4,8 km/h (1 Bft)
19.07.2019 11:44 20,8 C 60 % 1015,7 hPa 0,0 l/m 1,1 km/h (1 Bft) N-NW 327 12,7 C 20,8 C 1,6 km/h (1 Bft)
19.07.2019 11:43 20,8 C 59 % 1015,6 hPa 0,0 l/m 2,1 km/h (1 Bft) N-NW 327 12,5 C 20,8 C 3,2 km/h (1 Bft)
19.07.2019 11:42 20,9 C 59 % 1015,6 hPa 0,0 l/m 5,9 km/h (2 Bft) W-NW 288 12,6 C 20,9 C 12,9 km/h (3 Bft)
19.07.2019 11:41 20,9 C 61 % 1015,6 hPa 0,0 l/m 0,3 km/h (0 Bft) N-NW 341 13,1 C 20,9 C 1,6 km/h (1 Bft)
19.07.2019 11:40 20,9 C 62 % 1015,6 hPa 0,0 l/m 0,4 km/h (0 Bft) N-NW 341 13,3 C 20,9 C 1,6 km/h (1 Bft)
19.07.2019 11:39 20,9 C 62 % 1015,6 hPa 0,0 l/m 0,0 km/h (0 Bft) N-NW 341 13,3 C 20,9 C 0,0 km/h (0 Bft)
19.07.2019 11:38 20,9 C 62 % 1015,6 hPa 0,0 l/m 0,0 km/h (0 Bft) N-NW 341 13,3 C 20,9 C 0,0 km/h (0 Bft)
19.07.2019 11:37 20,9 C 61 % 1015,6 hPa 0,0 l/m 0,0 km/h (0 Bft) N-NW 341 13,1 C 20,9 C 0,0 km/h (0 Bft)
19.07.2019 11:36 20,8 C 61 % 1015,7 hPa 0,0 l/m 0,7 km/h (0 Bft) N-NW 341 13,0 C 20,8 C 3,2 km/h (1 Bft)
19.07.2019 11:35 20,9 C 61 % 1015,6 hPa 0,0 l/m 2,2 km/h (1 Bft) N-NW 341 13,1 C 20,9 C 4,8 km/h (1 Bft)
19.07.2019 11:34 20,9 C 64 % 1015,6 hPa 0,0 l/m 0,4 km/h (0 Bft) N-NW 340 13,8 C 20,9 C 1,6 km/h (1 Bft)
19.07.2019 11:33 20,8 C 62 % 1015,6 hPa 0,0 l/m 0,5 km/h (0 Bft) N-NW 340 13,2 C 20,8 C 1,6 km/h (1 Bft)
19.07.2019 11:32 20,8 C 60 % 1015,6 hPa 0,0 l/m 0,0 km/h (0 Bft) N-NW 335 12,7 C 20,8 C 0,0 km/h (0 Bft)
19.07.2019 11:31 20,8 C 60 % 1015,6 hPa 0,0 l/m 0,1 km/h (0 Bft) N 355 12,7 C 20,8 C 1,6 km/h (1 Bft)
19.07.2019 11:30 20,8 C 61 % 1015,7 hPa 0,0 l/m 1,2 km/h (1 Bft) N 355 13,0 C 20,8 C 3,2 km/h (1 Bft)
19.07.2019 11:29 20,8 C 61 % 1015,6 hPa 0,0 l/m 0,9 km/h (0 Bft) N 355 13,0 C 20,8 C 1,6 km/h (1 Bft)
19.07.2019 11:28 20,7 C 59 % 1015,6 hPa 0,0 l/m 1,8 km/h (1 Bft) N 355 12,4 C 20,7 C 4,8 km/h (1 Bft)
19.07.2019 11:27 20,7 C 61 % 1015,6 hPa 0,0 l/m 4,9 km/h (1 Bft) N 355 12,9 C 20,7 C 9,7 km/h (2 Bft)
19.07.2019 11:26 20,7 C 60 % 1015,6 hPa 0,0 l/m 1,0 km/h (0 Bft) W-SW 244 12,7 C 20,7 C 3,2 km/h (1 Bft)
19.07.2019 11:25 20,7 C 59 % 1015,6 hPa 0,0 l/m 0,0 km/h (0 Bft) SW 233 12,4 C 20,7 C 0,0 km/h (0 Bft)
19.07.2019 11:24 20,7 C 59 % 1015,6 hPa 0,0 l/m 0,3 km/h (0 Bft) SW 233 12,4 C 20,7 C 1,6 km/h (1 Bft)
19.07.2019 11:23 20,7 C 59 % 1015,6 hPa 0,0 l/m 1,0 km/h (0 Bft) SW 233 12,4 C 20,7 C 1,6 km/h (1 Bft)
19.07.2019 11:22 20,7 C 59 % 1015,6 hPa 0,0 l/m 1,3 km/h (1 Bft) SW 233 12,4 C 20,7 C 3,2 km/h (1 Bft)
19.07.2019 11:21 20,7 C 58 % 1015,6 hPa 0,0 l/m 1,4 km/h (1 Bft) SW 233 12,1 C 20,7 C 3,2 km/h (1 Bft)
19.07.2019 11:20 20,7 C 60 % 1015,7 hPa 0,0 l/m 3,0 km/h (1 Bft) SW 234 12,7 C 20,7 C 9,7 km/h (2 Bft)
19.07.2019 11:19 20,8 C 61 % 1015,6 hPa 0,0 l/m 1,1 km/h (1 Bft) O 80 13,0 C 20,8 C 4,8 km/h (1 Bft)
19.07.2019 11:18 20,7 C 60 % 1015,5 hPa 0,0 l/m 0,0 km/h (0 Bft) O 80 12,7 C 20,7 C 0,0 km/h (0 Bft)
19.07.2019 11:17 20,7 C 58 % 1015,6 hPa 0,0 l/m 0,8 km/h (0 Bft) O 80 12,1 C 20,7 C 3,2 km/h (1 Bft)
19.07.2019 11:16 20,7 C 59 % 1015,5 hPa 0,0 l/m 3,1 km/h (1 Bft) O 80 12,4 C 20,7 C 6,4 km/h (2 Bft)
19.07.2019 11:15 20,7 C 60 % 1015,5 hPa 0,0 l/m 0,3 km/h (0 Bft) N-NW 338 12,7 C 20,7 C 1,6 km/h (1 Bft)
19.07.2019 11:14 20,7 C 59 % 1015,5 hPa 0,0 l/m 0,7 km/h (0 Bft) N-NW 338 12,4 C 20,7 C 1,6 km/h (1 Bft)
19.07.2019 11:13 20,8 C 58 % 1015,5 hPa 0,0 l/m 0,3 km/h (0 Bft) N-NW 338 12,2 C 20,8 C 1,6 km/h (1 Bft)
19.07.2019 11:12 20,8 C 58 % 1015,5 hPa 0,0 l/m 8,9 km/h (2 Bft) N-NW 338 12,2 C 20,8 C 14,5 km/h (3 Bft)
19.07.2019 11:11 20,8 C 58 % 1015,5 hPa 0,0 l/m 7,0 km/h (2 Bft) N 355 12,2 C 20,8 C 12,9 km/h (3 Bft)
19.07.2019 11:10 20,8 C 58 % 1015,5 hPa 0,0 l/m 2,8 km/h (1 Bft) SW 224 12,2 C 20,8 C 6,4 km/h (2 Bft)
19.07.2019 11:09 20,8 C 60 % 1015,5 hPa 0,0 l/m 2,3 km/h (1 Bft) S 184 12,7 C 20,8 C 6,4 km/h (2 Bft)
19.07.2019 11:08 20,8 C 58 % 1015,6 hPa 0,0 l/m 0,8 km/h (0 Bft) S 189 12,2 C 20,8 C 3,2 km/h (1 Bft)
19.07.2019 11:07 20,8 C 58 % 1015,5 hPa 0,0 l/m 0,5 km/h (0 Bft) S 189 12,2 C 20,8 C 1,6 km/h (1 Bft)
19.07.2019 11:06 20,8 C 57 % 1015,6 hPa 0,0 l/m 1,0 km/h (0 Bft) S 187 12,0 C 20,8 C 3,2 km/h (1 Bft)
19.07.2019 11:05 20,8 C 58 % 1015,5 hPa 0,0 l/m 4,7 km/h (1 Bft) S 187 12,2 C 20,8 C 11,3 km/h (2 Bft)
19.07.2019 11:04 20,8 C 58 % 1015,6 hPa 0,0 l/m 1,7 km/h (1 Bft) NW 326 12,2 C 20,8 C 4,8 km/h (1 Bft)
19.07.2019 11:03 20,9 C 60 % 1015,6 hPa 0,0 l/m 1,9 km/h (1 Bft) N-NW 329 12,8 C 20,9 C 6,4 km/h (2 Bft)
19.07.2019 11:02 20,9 C 60 % 1015,6 hPa 0,0 l/m 1,6 km/h (1 Bft) N-NW 331 12,8 C 20,9 C 6,4 km/h (2 Bft)
_ Min-Zeit 06:55 17:15 18:08 - 13:26 - - 04:21 06:55 13:26
Minimum _ 14,7 C 45 % 1011,8 hPa - 0,0 km/h (0 Bft) - - 8,8 C 14,7 C 0,0 km/h (0 Bft)
_ Max-Zeit 16:08 06:48 11:57 06:32 13:56 - - 11:34 16:08 13:57
Maximum _ 21,8 C 80 % 1015,8 hPa 0,2 l/m 11,0 km/h
N (2 Bft)
- - 13,8 C 21,8 C 22,5 km/h
N (4 Bft)
Durchschnitt _ 18,8 C 60 % 1013,6 hPa #0,2 l/m 1,2 km/h (1 Bft) S - 10,7 C 18,8 C 3,3 km/h (1 Bft)
(C) Wetterstation Hinterwies